createdAt,value
2018-09-02T00:01:50.889Z,12.90
2018-09-02T00:04:19.472Z,12.90
2018-09-02T00:06:48.127Z,12.90
2018-09-02T00:09:16.695Z,12.90
2018-09-02T00:11:45.320Z,12.90
2018-09-02T00:14:13.884Z,12.80
2018-09-02T00:16:42.832Z,12.80
2018-09-02T00:19:11.413Z,12.80
2018-09-02T00:21:39.989Z,12.90
2018-09-02T00:24:08.604Z,12.90
2018-09-02T00:26:37.232Z,12.80
2018-09-02T00:29:05.817Z,12.80
2018-09-02T00:31:34.416Z,12.80
2018-09-02T00:34:03.301Z,12.70
2018-09-02T00:36:32.009Z,12.70
2018-09-02T00:39:08.676Z,12.70
2018-09-02T00:41:38.414Z,12.70
2018-09-02T00:44:07.381Z,12.60
2018-09-02T00:46:35.923Z,12.60
2018-09-02T00:49:04.471Z,12.60
2018-09-02T00:51:33.056Z,12.50
2018-09-02T00:54:01.589Z,12.50
2018-09-02T00:56:30.224Z,12.40
2018-09-02T00:58:58.794Z,12.40
2018-09-02T01:01:27.377Z,12.40
2018-09-02T01:03:55.929Z,12.40
2018-09-02T01:06:24.898Z,12.40
2018-09-02T01:08:53.501Z,12.40
2018-09-02T01:11:22.079Z,12.40
2018-09-02T01:13:50.639Z,12.50
2018-09-02T01:16:19.308Z,12.40
2018-09-02T01:18:47.881Z,12.30
2018-09-02T01:21:16.447Z,12.30
2018-09-02T01:23:45.055Z,12.20
2018-09-02T01:26:13.635Z,12.20
2018-09-02T01:28:42.235Z,12.10
2018-09-02T01:31:10.864Z,12.10
2018-09-02T01:33:39.424Z,12.10
2018-09-02T01:36:08.048Z,12.10
2018-09-02T01:38:36.656Z,12.00
2018-09-02T01:41:05.255Z,12.00
2018-09-02T01:43:33.820Z,12.00
2018-09-02T01:46:02.479Z,11.90
2018-09-02T01:48:31.056Z,11.80
2018-09-02T01:50:59.639Z,11.80
2018-09-02T01:53:28.253Z,11.80
2018-09-02T01:55:56.839Z,11.80
2018-09-02T01:58:25.449Z,11.80
2018-09-02T02:00:54.181Z,11.80
2018-09-02T02:03:23.139Z,11.80
2018-09-02T02:05:51.962Z,11.80
2018-09-02T02:08:20.796Z,11.80
2018-09-02T02:10:49.584Z,11.80
2018-09-02T02:13:18.374Z,11.80
2018-09-02T02:15:46.967Z,11.90
2018-09-02T02:18:15.560Z,11.80
2018-09-02T02:20:44.111Z,11.80
2018-09-02T02:23:12.711Z,11.80
2018-09-02T02:25:41.249Z,11.70
2018-09-02T02:28:09.819Z,11.70
2018-09-02T02:30:38.444Z,11.80
2018-09-02T02:33:07.055Z,11.70
2018-09-02T02:35:35.652Z,11.70
2018-09-02T02:38:04.336Z,11.70
2018-09-02T02:40:32.936Z,11.70
2018-09-02T02:43:01.571Z,11.70
2018-09-02T02:45:30.133Z,11.70
2018-09-02T02:47:58.740Z,11.60
2018-09-02T02:50:27.348Z,11.60
2018-09-02T02:53:01.419Z,11.60
2018-09-02T02:55:30.080Z,11.60
2018-09-02T02:57:58.812Z,11.60
2018-09-02T03:00:27.364Z,11.60
2018-09-02T03:02:55.999Z,11.60
2018-09-02T03:05:24.566Z,11.60
2018-09-02T03:07:53.148Z,11.60
2018-09-02T03:10:21.781Z,11.60
2018-09-02T03:12:50.344Z,11.60
2018-09-02T03:15:19.180Z,11.50
2018-09-02T03:17:48.101Z,11.60
2018-09-02T03:20:16.670Z,11.60
2018-09-02T03:22:45.244Z,11.60
2018-09-02T03:25:13.841Z,11.50
2018-09-02T03:27:42.560Z,11.50
2018-09-02T03:30:11.394Z,11.50
2018-09-02T03:32:40.278Z,11.50
2018-09-02T03:35:09.179Z,11.40
2018-09-02T03:37:38.040Z,11.40
2018-09-02T03:40:06.887Z,11.30
2018-09-02T03:42:42.008Z,11.30
2018-09-02T03:45:10.561Z,11.30
2018-09-02T03:47:39.182Z,11.30
2018-09-02T03:50:07.749Z,11.20
2018-09-02T03:52:36.381Z,11.20
2018-09-02T03:55:05.064Z,11.30
2018-09-02T03:57:33.688Z,11.30
2018-09-02T04:00:02.276Z,11.30
2018-09-02T04:02:37.343Z,11.30
2018-09-02T04:05:06.688Z,11.30
2018-09-02T04:07:35.532Z,11.30
2018-09-02T04:10:04.544Z,11.20
2018-09-02T04:12:33.359Z,11.30
2018-09-02T04:15:02.252Z,11.30
2018-09-02T04:17:31.098Z,11.30
2018-09-02T04:19:59.624Z,11.20
2018-09-02T04:22:28.213Z,11.20
2018-09-02T04:24:56.786Z,11.10
2018-09-02T04:27:25.352Z,11.10
2018-09-02T04:29:53.925Z,10.90
2018-09-02T04:32:22.491Z,10.90
2018-09-02T04:34:51.117Z,10.80
2018-09-02T04:37:19.728Z,10.80
2018-09-02T04:39:48.312Z,10.90
2018-09-02T04:42:16.881Z,10.80
2018-09-02T04:44:45.518Z,10.80
2018-09-02T04:47:14.071Z,10.90
2018-09-02T04:49:42.707Z,10.90
2018-09-02T04:52:11.314Z,10.90
2018-09-02T04:54:39.908Z,10.90
2018-09-02T04:57:08.450Z,11.00
2018-09-02T04:59:37.097Z,11.00
2018-09-02T05:02:05.652Z,11.00
2018-09-02T05:04:34.208Z,11.00
2018-09-02T05:07:02.813Z,11.00
2018-09-02T05:09:31.416Z,11.00
2018-09-02T05:11:59.970Z,10.90
2018-09-02T05:14:28.556Z,10.90
2018-09-02T05:16:57.217Z,10.80
2018-09-02T05:19:26.112Z,10.90
2018-09-02T05:21:55.029Z,10.80
2018-09-02T05:24:23.829Z,10.80
2018-09-02T05:26:52.783Z,10.80
2018-09-02T05:29:21.608Z,10.80
2018-09-02T05:31:50.497Z,10.80
2018-09-02T05:34:19.375Z,10.70
2018-09-02T05:36:48.321Z,10.70
2018-09-02T05:39:17.105Z,10.70
2018-09-02T05:41:45.932Z,10.80
2018-09-02T05:44:14.782Z,10.90
2018-09-02T05:46:43.608Z,10.90
2018-09-02T05:49:12.195Z,11.00
2018-09-02T05:51:40.747Z,11.00
2018-09-02T05:54:09.356Z,11.10
2018-09-02T05:56:37.912Z,11.10
2018-09-02T05:59:06.509Z,11.10
2018-09-02T06:01:35.116Z,11.10
2018-09-02T06:04:04.104Z,11.20
2018-09-02T06:06:32.800Z,11.20
2018-09-02T06:09:01.396Z,11.20
2018-09-02T06:11:30.012Z,11.30
2018-09-02T06:13:58.580Z,11.30
2018-09-02T06:16:27.144Z,11.40
2018-09-02T06:18:55.825Z,11.50
2018-09-02T06:21:24.412Z,11.50
2018-09-02T06:23:53.016Z,11.60
2018-09-02T06:26:21.593Z,11.60
2018-09-02T06:28:50.156Z,11.70
2018-09-02T06:31:19.072Z,11.80
2018-09-02T06:33:47.661Z,11.80
2018-09-02T06:36:16.332Z,11.90
2018-09-02T06:38:44.912Z,12.00
2018-09-02T06:41:13.540Z,12.00
2018-09-02T06:43:42.120Z,12.10
2018-09-02T06:46:10.835Z,12.20
2018-09-02T06:48:40.258Z,12.20
2018-09-02T06:51:08.848Z,12.30
2018-09-02T06:53:37.448Z,12.40
2018-09-02T06:56:06.105Z,12.50
2018-09-02T06:58:34.732Z,12.60
2018-09-02T07:01:03.386Z,12.60
2018-09-02T07:03:31.972Z,12.70
2018-09-02T07:06:00.592Z,12.80
2018-09-02T07:08:29.162Z,12.90
2018-09-02T07:10:57.760Z,13.00
2018-09-02T07:13:26.333Z,13.00
2018-09-02T07:15:55.000Z,13.10
2018-09-02T07:18:23.600Z,13.20
2018-09-02T07:20:52.246Z,13.30
2018-09-02T07:23:20.868Z,13.40
2018-09-02T07:25:49.514Z,13.40
2018-09-02T07:28:18.072Z,13.50
2018-09-02T07:30:46.719Z,13.60
2018-09-02T07:33:15.360Z,13.70
2018-09-02T07:35:44.027Z,13.80
2018-09-02T07:38:12.662Z,13.80
2018-09-02T07:40:41.262Z,13.90
2018-09-02T07:43:09.860Z,14.00
2018-09-02T07:45:38.499Z,14.10
2018-09-02T07:48:07.160Z,14.20
2018-09-02T07:50:35.960Z,14.30
2018-09-02T07:53:04.985Z,14.40
2018-09-02T07:55:33.600Z,14.50
2018-09-02T07:58:02.247Z,14.60
2018-09-02T08:00:30.823Z,14.70
2018-09-02T08:02:59.440Z,14.80
2018-09-02T08:05:28.039Z,14.90
2018-09-02T08:07:56.597Z,15.00
2018-09-02T08:10:25.226Z,15.10
2018-09-02T08:12:53.959Z,15.30
2018-09-02T08:15:22.423Z,15.30
2018-09-02T08:17:51.015Z,15.50
2018-09-02T08:20:19.688Z,15.50
2018-09-02T08:22:48.294Z,15.70
2018-09-02T08:25:17.322Z,15.90
2018-09-02T08:27:46.857Z,16.00
2018-09-02T08:30:16.081Z,16.20
2018-09-02T08:32:44.670Z,16.20
2018-09-02T08:35:13.422Z,16.40
2018-09-02T08:37:42.121Z,16.60
2018-09-02T08:40:10.682Z,16.80
2018-09-02T08:42:39.294Z,17.00
2018-09-02T08:45:08.493Z,17.20
2018-09-02T08:47:37.132Z,17.30
2018-09-02T08:50:06.041Z,17.40
2018-09-02T08:52:34.632Z,17.50
2018-09-02T08:55:03.243Z,17.70
2018-09-02T08:57:31.864Z,17.80
2018-09-02T09:00:01.178Z,17.90
2018-09-02T09:02:30.874Z,18.00
2018-09-02T09:04:59.938Z,18.20
2018-09-02T09:07:29.993Z,18.30
2018-09-02T09:09:58.520Z,18.30
2018-09-02T09:12:27.149Z,18.40
2018-09-02T09:14:55.775Z,18.50
2018-09-02T09:17:24.397Z,18.60
2018-09-02T09:19:52.961Z,18.70
2018-09-02T09:22:21.569Z,18.70
2018-09-02T09:24:50.169Z,18.60
2018-09-02T09:27:18.765Z,18.60
2018-09-02T09:29:47.320Z,18.60
2018-09-02T09:32:15.945Z,18.60
2018-09-02T09:34:44.491Z,18.60
2018-09-02T09:37:13.112Z,18.60
2018-09-02T09:39:41.668Z,18.50
2018-09-02T09:42:10.269Z,18.50
2018-09-02T09:44:38.867Z,18.50
2018-09-02T09:47:07.485Z,18.50
2018-09-02T09:49:36.055Z,18.50
2018-09-02T09:52:05.560Z,18.50
2018-09-02T09:54:34.172Z,18.50
2018-09-02T09:57:02.772Z,18.60
2018-09-02T09:59:31.498Z,18.60
2018-09-02T10:02:00.328Z,18.80
2018-09-02T10:04:28.988Z,18.90
2018-09-02T10:06:57.607Z,19.00
2018-09-02T10:09:26.188Z,19.10
2018-09-02T10:11:54.814Z,19.10
2018-09-02T10:14:23.440Z,19.10
2018-09-02T10:16:52.047Z,19.00
2018-09-02T10:19:20.629Z,18.90
2018-09-02T10:21:49.261Z,18.80
2018-09-02T10:24:18.190Z,18.70
2018-09-02T10:26:47.271Z,18.70
2018-09-02T10:29:15.951Z,18.80
2018-09-02T10:31:44.513Z,18.90
2018-09-02T10:34:13.174Z,19.10
2018-09-02T10:36:41.837Z,19.20
2018-09-02T10:39:10.558Z,19.20
2018-09-02T10:41:39.214Z,19.30
2018-09-02T10:44:08.282Z,19.40
2018-09-02T10:46:36.858Z,19.40
2018-09-02T10:49:06.282Z,19.30
2018-09-02T10:51:34.947Z,19.30
2018-09-02T10:54:03.545Z,19.50
2018-09-02T10:56:32.111Z,19.60
2018-09-02T10:59:00.707Z,19.80
2018-09-02T11:01:29.304Z,19.80
2018-09-02T11:03:57.915Z,19.80
2018-09-02T11:06:26.670Z,19.70
2018-09-02T11:08:55.328Z,19.70
2018-09-02T11:11:24.008Z,19.80
2018-09-02T11:13:52.807Z,19.80
2018-09-02T11:16:21.267Z,19.80
2018-09-02T11:18:49.860Z,19.80
2018-09-02T11:21:18.435Z,19.80
2018-09-02T11:23:47.072Z,19.80
2018-09-02T11:26:15.639Z,19.80
2018-09-02T11:28:44.237Z,19.70
2018-09-02T11:31:12.832Z,19.60
2018-09-02T11:33:41.466Z,19.60
2018-09-02T11:36:10.137Z,19.50
2018-09-02T11:38:38.785Z,19.50
2018-09-02T11:41:07.778Z,19.50
2018-09-02T11:43:36.653Z,19.50
2018-09-02T11:46:06.601Z,19.50
2018-09-02T11:48:35.476Z,19.60
2018-09-02T11:51:04.448Z,19.60
2018-09-02T11:53:33.339Z,19.70
2018-09-02T11:56:02.164Z,19.70
2018-09-02T11:58:31.001Z,19.70
2018-09-02T12:00:59.852Z,19.80
2018-09-02T12:03:28.709Z,19.80
2018-09-02T12:05:57.567Z,19.90
2018-09-02T12:08:26.548Z,19.80
2018-09-02T12:10:55.352Z,19.70
2018-09-02T12:13:24.132Z,19.60
2018-09-02T12:15:53.000Z,19.60
2018-09-02T12:18:21.926Z,19.60
2018-09-02T12:20:50.738Z,19.60
2018-09-02T12:23:19.588Z,19.60
2018-09-02T12:25:48.419Z,19.50
2018-09-02T12:28:19.053Z,19.50
2018-09-02T12:30:47.708Z,19.50
2018-09-02T12:33:16.288Z,19.50
2018-09-02T12:35:45.063Z,19.50
2018-09-02T12:38:13.984Z,19.40
2018-09-02T12:40:42.860Z,19.40
2018-09-02T12:43:11.709Z,19.50
2018-09-02T12:45:40.557Z,19.50
2018-09-02T12:48:09.619Z,19.50
2018-09-02T12:50:38.447Z,19.60
2018-09-02T12:53:07.614Z,19.70
2018-09-02T12:55:36.512Z,19.70
2018-09-02T12:58:05.397Z,19.70
2018-09-02T13:00:34.900Z,19.70
2018-09-02T13:03:04.749Z,19.70
2018-09-02T13:05:33.360Z,19.70
2018-09-02T13:08:01.966Z,19.70
2018-09-02T13:10:30.593Z,19.70
2018-09-02T13:12:59.263Z,19.60
2018-09-02T13:15:27.914Z,19.50
2018-09-02T13:17:56.495Z,19.40
2018-09-02T13:20:25.120Z,19.40
2018-09-02T13:22:53.696Z,19.30
2018-09-02T13:25:22.335Z,19.30
2018-09-02T13:27:50.868Z,19.30
2018-09-02T13:30:19.626Z,19.30
2018-09-02T13:32:48.195Z,19.40
2018-09-02T13:35:16.821Z,19.50
2018-09-02T13:37:45.378Z,19.60
2018-09-02T13:40:14.114Z,19.60
2018-09-02T13:42:42.649Z,19.60
2018-09-02T13:45:11.332Z,19.50
2018-09-02T13:47:39.947Z,19.50
2018-09-02T13:50:15.199Z,19.40
2018-09-02T13:52:43.817Z,19.40
2018-09-02T13:55:12.439Z,19.30
2018-09-02T13:57:41.007Z,19.30
2018-09-02T14:00:09.647Z,19.30
2018-09-02T14:02:38.213Z,19.30
2018-09-02T14:05:06.833Z,19.20
2018-09-02T14:07:35.411Z,19.20
2018-09-02T14:10:04.152Z,19.20
2018-09-02T14:12:32.757Z,19.30
2018-09-02T14:15:01.434Z,19.30
2018-09-02T14:17:30.101Z,19.40
2018-09-02T14:19:58.714Z,19.40
2018-09-02T14:22:27.269Z,19.40
2018-09-02T14:24:55.833Z,19.50
2018-09-02T14:27:24.422Z,19.50
2018-09-02T14:29:53.124Z,19.40
2018-09-02T14:32:21.803Z,19.50
2018-09-02T14:34:50.421Z,19.60
2018-09-02T14:37:19.038Z,19.60
2018-09-02T14:39:47.640Z,19.60
2018-09-02T14:42:16.244Z,19.60
2018-09-02T14:44:44.840Z,19.70
2018-09-02T14:47:13.409Z,19.70
2018-09-02T14:49:42.028Z,19.70
2018-09-02T14:52:10.609Z,19.80
2018-09-02T14:54:39.197Z,19.80
2018-09-02T14:57:07.892Z,19.80
2018-09-02T14:59:36.435Z,19.90
2018-09-02T15:02:05.054Z,19.90
2018-09-02T15:04:33.703Z,19.90
2018-09-02T15:07:02.294Z,19.90
2018-09-02T15:09:30.860Z,20.00
2018-09-02T15:11:59.492Z,19.90
2018-09-02T15:14:28.082Z,19.90
2018-09-02T15:16:56.691Z,19.90
2018-09-02T15:19:25.276Z,19.90
2018-09-02T15:21:53.864Z,19.90
2018-09-02T15:24:22.466Z,19.90
2018-09-02T15:26:51.077Z,19.80
2018-09-02T15:29:19.645Z,19.70
2018-09-02T15:31:48.264Z,19.70
2018-09-02T15:34:16.885Z,19.70
2018-09-02T15:36:45.535Z,19.70
2018-09-02T15:39:14.097Z,19.60
2018-09-02T15:41:42.741Z,19.60
2018-09-02T15:44:11.443Z,19.60
2018-09-02T15:46:39.990Z,19.60
2018-09-02T15:49:08.617Z,19.60
2018-09-02T15:51:37.272Z,19.60
2018-09-02T15:54:05.887Z,19.60
2018-09-02T15:56:34.580Z,19.60
2018-09-02T15:59:03.187Z,19.50
2018-09-02T16:01:31.804Z,19.60
2018-09-02T16:04:00.390Z,19.60
2018-09-02T16:06:29.013Z,19.60
2018-09-02T16:08:57.568Z,19.60
2018-09-02T16:11:26.145Z,19.60
2018-09-02T16:13:54.706Z,19.70
2018-09-02T16:16:23.320Z,19.70
2018-09-02T16:18:51.921Z,19.70
2018-09-02T16:21:20.521Z,19.70
2018-09-02T16:23:49.098Z,19.80
2018-09-02T16:26:17.752Z,19.80
2018-09-02T16:28:46.337Z,19.80
2018-09-02T16:31:15.062Z,19.80
2018-09-02T16:33:43.989Z,19.80
2018-09-02T16:36:12.853Z,19.80
2018-09-02T16:38:41.707Z,19.80
2018-09-02T16:41:10.561Z,19.90
2018-09-02T16:43:39.469Z,19.80
2018-09-02T16:46:08.324Z,19.80
2018-09-02T16:48:37.309Z,19.80
2018-09-02T16:51:06.333Z,19.70
2018-09-02T16:53:35.197Z,19.80
2018-09-02T16:56:04.032Z,19.70
2018-09-02T16:58:32.919Z,19.70
2018-09-02T17:01:02.621Z,19.70
2018-09-02T17:03:35.496Z,19.70
2018-09-02T17:06:04.409Z,19.60
2018-09-02T17:08:33.094Z,19.60
2018-09-02T17:11:01.699Z,19.60
2018-09-02T17:13:30.339Z,19.60
2018-09-02T17:15:58.885Z,19.60
2018-09-02T17:18:27.480Z,19.50
2018-09-02T17:20:56.065Z,19.60
2018-09-02T17:23:24.657Z,19.60
2018-09-02T17:25:53.386Z,19.50
2018-09-02T17:28:21.896Z,19.50
2018-09-02T17:30:50.495Z,19.50
2018-09-02T17:33:19.110Z,19.50
2018-09-02T17:35:47.706Z,19.50
2018-09-02T17:38:16.317Z,19.40
2018-09-02T17:40:44.916Z,19.40
2018-09-02T17:43:13.508Z,19.40
2018-09-02T17:45:42.107Z,19.40
2018-09-02T17:48:10.696Z,19.30
2018-09-02T17:50:39.263Z,19.30
2018-09-02T17:53:07.831Z,19.20
2018-09-02T17:55:36.501Z,19.20
2018-09-02T17:58:05.318Z,19.10
2018-09-02T18:00:37.260Z,19.10
2018-09-02T18:03:06.522Z,19.00
2018-09-02T18:05:35.361Z,19.00
2018-09-02T18:08:05.806Z,19.00
2018-09-02T18:10:35.245Z,18.90
2018-09-02T18:13:04.105Z,18.80
2018-09-02T18:15:33.056Z,18.70
2018-09-02T18:18:02.076Z,18.70
2018-09-02T18:20:30.984Z,18.70
2018-09-02T18:23:00.257Z,18.60
2018-09-02T18:25:29.280Z,18.60
2018-09-02T18:28:00.536Z,18.60
2018-09-02T18:30:29.402Z,18.70
2018-09-02T18:32:58.279Z,18.70
2018-09-02T18:35:26.856Z,18.70
2018-09-02T18:37:55.418Z,18.70
2018-09-02T18:40:24.012Z,18.70
2018-09-02T18:42:52.604Z,18.60
2018-09-02T18:45:21.243Z,18.60
2018-09-02T18:47:50.038Z,18.60
2018-09-02T18:50:18.951Z,18.60
2018-09-02T18:52:47.813Z,18.60
2018-09-02T18:55:16.729Z,18.60
2018-09-02T18:57:45.507Z,18.50
2018-09-02T19:00:14.497Z,18.40
2018-09-02T19:02:43.328Z,18.40
2018-09-02T19:05:12.161Z,18.30
2018-09-02T19:07:41.041Z,18.30
2018-09-02T19:10:09.992Z,18.20
2018-09-02T19:12:38.850Z,18.20
2018-09-02T19:15:07.852Z,18.20
2018-09-02T19:17:36.783Z,18.20
2018-09-02T19:20:05.992Z,18.20
2018-09-02T19:22:34.953Z,18.20
2018-09-02T19:25:03.894Z,18.20
2018-09-02T19:27:32.708Z,18.20
2018-09-02T19:30:01.577Z,18.30
2018-09-02T19:32:30.487Z,18.30
2018-09-02T19:34:59.391Z,18.30
2018-09-02T19:37:28.297Z,18.30
2018-09-02T19:39:57.200Z,18.30
2018-09-02T19:42:26.189Z,18.30
2018-09-02T19:44:55.029Z,18.30
2018-09-02T19:47:23.841Z,18.30
2018-09-02T19:49:52.859Z,18.30
2018-09-02T19:52:21.720Z,18.20
2018-09-02T19:54:50.629Z,18.20
2018-09-02T19:57:19.444Z,18.20
2018-09-02T19:59:48.375Z,18.20
2018-09-02T20:02:17.051Z,18.20
2018-09-02T20:04:45.689Z,18.20
2018-09-02T20:07:14.228Z,18.20
2018-09-02T20:09:42.815Z,18.20
2018-09-02T20:12:11.415Z,18.20
2018-09-02T20:14:39.975Z,18.20
2018-09-02T20:17:08.567Z,18.20
2018-09-02T20:19:37.157Z,18.20
2018-09-02T20:22:08.950Z,18.20
2018-09-02T20:24:37.845Z,18.20
2018-09-02T20:27:06.761Z,18.10
2018-09-02T20:29:35.647Z,18.10
2018-09-02T20:32:04.547Z,18.10
2018-09-02T20:34:33.399Z,18.10
2018-09-02T20:37:02.279Z,18.00
2018-09-02T20:39:31.112Z,18.00
2018-09-02T20:41:59.935Z,18.00
2018-09-02T20:44:28.850Z,18.00
2018-09-02T20:46:57.868Z,18.00
2018-09-02T20:49:26.752Z,18.00
2018-09-02T20:51:55.637Z,18.00
2018-09-02T20:54:24.516Z,18.00
2018-09-02T20:56:53.340Z,18.00
2018-09-02T20:59:22.313Z,17.90
2018-09-02T21:01:51.143Z,17.90
2018-09-02T21:04:20.030Z,17.90
2018-09-02T21:06:48.912Z,17.80
2018-09-02T21:09:18.465Z,17.80
2018-09-02T21:11:47.427Z,17.80
2018-09-02T21:14:16.311Z,17.70
2018-09-02T21:16:45.206Z,17.60
2018-09-02T21:19:14.049Z,17.60
2018-09-02T21:21:42.879Z,17.60
2018-09-02T21:24:11.469Z,17.50
2018-09-02T21:26:40.056Z,17.50
2018-09-02T21:29:08.712Z,17.40
2018-09-02T21:31:37.299Z,17.40
2018-09-02T21:34:05.919Z,17.30
2018-09-02T21:36:34.547Z,17.20
2018-09-02T21:39:03.262Z,17.10
2018-09-02T21:41:31.858Z,17.10
2018-09-02T21:44:00.449Z,17.00
2018-09-02T21:46:29.043Z,17.00
2018-09-02T21:48:57.682Z,16.90
2018-09-02T21:51:26.380Z,16.90
2018-09-02T21:53:54.932Z,16.90
2018-09-02T21:56:23.531Z,16.80
2018-09-02T21:58:52.125Z,16.70
2018-09-02T22:01:20.704Z,16.70
2018-09-02T22:03:49.274Z,16.80
2018-09-02T22:06:17.891Z,16.80
2018-09-02T22:08:46.542Z,16.80
2018-09-02T22:11:15.151Z,16.80
2018-09-02T22:13:43.700Z,16.80
2018-09-02T22:16:12.328Z,16.80
2018-09-02T22:18:40.885Z,16.80
2018-09-02T22:21:09.460Z,16.70
2018-09-02T22:23:38.044Z,16.70
2018-09-02T22:26:06.664Z,16.70
2018-09-02T22:28:41.524Z,16.60
2018-09-02T22:31:10.087Z,16.60
2018-09-02T22:33:38.701Z,16.60
2018-09-02T22:36:07.383Z,16.70
2018-09-02T22:38:35.959Z,16.70
2018-09-02T22:41:04.653Z,16.70
2018-09-02T22:43:33.226Z,16.60
2018-09-02T22:46:01.817Z,16.60
2018-09-02T22:48:30.393Z,16.60
2018-09-02T22:50:58.981Z,16.60
2018-09-02T22:53:27.544Z,16.70
2018-09-02T22:55:56.131Z,16.80
2018-09-02T22:58:24.684Z,16.80
2018-09-02T23:00:53.295Z,16.80
2018-09-02T23:03:21.877Z,16.80
2018-09-02T23:05:50.437Z,16.80
2018-09-02T23:08:19.052Z,16.80
2018-09-02T23:10:47.640Z,16.70
2018-09-02T23:13:16.236Z,16.70
2018-09-02T23:15:44.815Z,16.70
2018-09-02T23:18:13.448Z,16.70
2018-09-02T23:20:42.069Z,16.70
2018-09-02T23:23:10.715Z,16.70
2018-09-02T23:25:39.332Z,16.70
2018-09-02T23:28:08.991Z,16.70
2018-09-02T23:30:37.544Z,16.70
2018-09-02T23:33:06.305Z,16.60
2018-09-02T23:35:34.925Z,16.70
2018-09-02T23:38:03.512Z,16.60
2018-09-02T23:40:32.063Z,16.60
2018-09-02T23:43:00.737Z,16.70
2018-09-02T23:45:29.321Z,16.70
2018-09-02T23:47:57.879Z,16.70
2018-09-02T23:50:26.449Z,16.80
2018-09-02T23:52:55.166Z,16.80
2018-09-02T23:55:23.865Z,16.80
2018-09-02T23:57:52.504Z,16.80
